Mariner A — 9HVA7 — position and weather

sailwx.info

Track history (hours):
 
Tides and Currents Weather Stations Pressure Air Temp Water Temp Dewpoint Dewpoint Depression Visibility Wind Speed Wind Dir Waves Ship Positions

Mariner A

Last reported at 2014-Sep-25 21:32 UTC. Time now 2014-Sep-30 20:03 UTC.
Position N 34°28' E 033°19'.

Length 176 m; draft 7.8 m.

Type: Tanker. MMSI: 215817000.

Date/timePositionNaut miles runAvg speedWind from/ knotsBaromVisibWave heightAir tempDewpointWater temp
2014-Sep-25 21:32N 34°28' E 033°19'9 9.0
2014-Sep-25 20:33N 34°35' E 033°13'2 1.8
2014-Sep-25 19:33N 34°36' E 033°11'1 0.5
2014-Sep-25 18:33N 34°36' E 033°10'6 6.0
2014-Sep-25 17:33N 34°34' E 033°17'3 2.9
2014-Sep-25 16:31N 34°33' E 033°20'2 2.4
2014-Sep-25 15:33N 34°34' E 033°18'6 4.6
2014-Sep-25 14:13N 34°31' E 033°25'14 0.7
2014-Sep-24 19:06N 34°36' E 033°41'1 2.0
2014-Sep-24 18:27N 34°35' E 033°39'3 1.9
2014-Sep-24 17:06N 34°34' E 033°36'14 2.4
2014-Sep-24 11:27N 34°31' E 033°20'2 1.4
2014-Sep-24 10:20N 34°31' E 033°19'1 1.6
2014-Sep-24 09:33N 34°31' E 033°17'  
2014-Sep-17 14:32N 33°02' E 034°31'1 0.9
2014-Sep-17 13:33N 33°03' E 034°30'1 0.9
2014-Sep-17 12:34N 33°04' E 034°30'1 0.7
2014-Sep-17 11:31N 33°05' E 034°30'1 0.5
2014-Sep-17 10:33N 33°05' E 034°30'1 0.2
2014-Sep-17 07:25N 33°05' E 034°29'  
Track history (hours):
 
Tides and Currents Weather Stations Pressure Air Temp Water Temp Dewpoint Dewpoint Depression Visibility Wind Speed Wind Dir Waves Ship Positions

Mariner A

Last reported at 2014-Sep-25 21:32 UTC. Time now 2014-Sep-30 20:03 UTC.
Position N 34°28' E 033°19'.

Length 176 m; draft 7.8 m.

Type: Tanker. MMSI: 215817000.

Date/timePositionNaut miles runAvg speedWind from/ knotsBaromVisibWave heightAir tempDewpointWater temp
2014-Sep-25 21:32N 34°28' E 033°19'9 9.0
2014-Sep-25 20:33N 34°35' E 033°13'2 1.8
2014-Sep-25 19:33N 34°36' E 033°11'1 0.5
2014-Sep-25 18:33N 34°36' E 033°10'6 6.0
2014-Sep-25 17:33N 34°34' E 033°17'3 2.9
2014-Sep-25 16:31N 34°33' E 033°20'2 2.4
2014-Sep-25 15:33N 34°34' E 033°18'6 4.6
2014-Sep-25 14:13N 34°31' E 033°25'14 0.7
2014-Sep-24 19:06N 34°36' E 033°41'1 2.0
2014-Sep-24 18:27N 34°35' E 033°39'3 1.9
2014-Sep-24 17:06N 34°34' E 033°36'14 2.4
2014-Sep-24 11:27N 34°31' E 033°20'2 1.4
2014-Sep-24 10:20N 34°31' E 033°19'1 1.6
2014-Sep-24 09:33N 34°31' E 033°17'  
2014-Sep-17 14:32N 33°02' E 034°31'1 0.9
2014-Sep-17 13:33N 33°03' E 034°30'1 0.9
2014-Sep-17 12:34N 33°04' E 034°30'1 0.7
2014-Sep-17 11:31N 33°05' E 034°30'1 0.5
2014-Sep-17 10:33N 33°05' E 034°30'1 0.2
2014-Sep-17 07:25N 33°05' E 034°29'  

Dump ship's entire track history